Spencer, South Dakota
Current Conditions -  °F | °C
As of 4:53 PM on Saturday 20 Dec 2014 (Local Time) from KMHE Reporting Station
Haze Haze  
Wind Chill: 19°   Ceiling: 400
Heat Index: 31°   Visibility: 4mi
Dew Point: 30°   Wind: 17mph
Humidity: 96%   Direction: 150°SSE
Pressure: 29.98"   Gusts: NA
Location:  43.73°N, 97.59°W
Report Text: KMHE 202253Z AUTO 15015KT 4SM BR OVC004 M01/M01 A2998 RMK AO2 SLP167 T10061011
Loading
Personal Weather Stations






























Interactive Weather Map New forecast layout! Learn more

10-Day Weather Forecast

Advertisements
Track Severe Weather on mobile